createdAt,value
2023-05-18T00:00:14.902Z,65.30
2023-05-18T00:02:42.115Z,65.11
2023-05-18T00:05:10.666Z,65.64
2023-05-18T00:07:37.606Z,65.66
2023-05-18T00:10:04.514Z,66.03
2023-05-18T00:12:31.588Z,66.06
2023-05-18T00:14:58.092Z,65.08
2023-05-18T00:17:24.926Z,65.09
2023-05-18T00:19:51.999Z,65.34
2023-05-18T00:22:19.087Z,65.79
2023-05-18T00:24:46.622Z,65.22
2023-05-18T00:27:13.183Z,64.84
2023-05-18T00:29:39.860Z,65.24
2023-05-18T00:32:06.720Z,65.12
2023-05-18T00:34:33.298Z,65.76
2023-05-18T00:36:59.812Z,65.69
2023-05-18T00:39:26.318Z,65.32
2023-05-18T00:41:52.899Z,65.42
2023-05-18T00:44:19.414Z,65.73
2023-05-18T00:46:45.881Z,65.54
2023-05-18T00:49:12.717Z,66.29
2023-05-18T00:51:39.496Z,65.67
2023-05-18T00:54:06.567Z,65.75
2023-05-18T00:56:36.159Z,65.79
2023-05-18T00:59:03.493Z,65.71
2023-05-18T01:01:34.814Z,66.70
2023-05-18T01:04:02.877Z,66.14
2023-05-18T01:06:36.057Z,66.26
2023-05-18T01:09:05.649Z,65.84
2023-05-18T01:12:13.427Z,66.13
2023-05-18T01:14:49.819Z,65.75
2023-05-18T01:17:36.504Z,66.32
2023-05-18T01:20:17.526Z,66.60
2023-05-18T01:22:56.457Z,66.87
2023-05-18T01:25:44.219Z,67.10
2023-05-18T01:28:17.175Z,67.13
2023-05-18T01:30:44.221Z,68.21
2023-05-18T01:33:11.786Z,67.33
2023-05-18T01:35:41.736Z,66.86
2023-05-18T01:38:08.273Z,67.35
2023-05-18T01:40:43.765Z,67.55
2023-05-18T01:43:11.825Z,66.92
2023-05-18T01:45:40.382Z,68.37
2023-05-18T01:48:07.728Z,68.12
2023-05-18T01:50:39.785Z,67.30
2023-05-18T01:53:10.559Z,67.23
2023-05-18T01:55:38.105Z,68.57
2023-05-18T01:58:06.073Z,67.69
2023-05-18T02:00:33.108Z,68.16
2023-05-18T02:03:00.207Z,68.02
2023-05-18T02:05:27.358Z,68.34
2023-05-18T02:07:53.997Z,67.49
2023-05-18T02:10:20.621Z,68.53
2023-05-18T02:12:52.486Z,68.83
2023-05-18T02:15:19.449Z,68.54
2023-05-18T02:17:45.931Z,68.33
2023-05-18T02:20:12.566Z,67.63
2023-05-18T02:22:55.009Z,69.67
2023-05-18T02:25:21.815Z,69.29
2023-05-18T02:27:48.416Z,68.54
2023-05-18T02:30:16.062Z,68.18
2023-05-18T02:32:42.813Z,68.68
2023-05-18T02:35:10.289Z,69.10
2023-05-18T02:37:40.175Z,68.56
2023-05-18T02:40:10.578Z,67.92
2023-05-18T02:42:37.066Z,67.86
2023-05-18T02:45:03.736Z,68.45
2023-05-18T02:47:30.389Z,68.40
2023-05-18T02:49:56.969Z,68.27
2023-05-18T02:52:23.702Z,67.75
2023-05-18T02:54:50.369Z,68.33
2023-05-18T02:57:16.900Z,68.42
2023-05-18T02:59:43.717Z,67.79
2023-05-18T03:02:10.251Z,67.64
2023-05-18T03:04:37.935Z,67.94
2023-05-18T03:07:04.613Z,67.58
2023-05-18T03:09:31.154Z,67.91
2023-05-18T03:11:57.694Z,67.43
2023-05-18T03:14:24.183Z,67.46
2023-05-18T03:16:54.357Z,67.52
2023-05-18T03:19:21.188Z,67.96
2023-05-18T03:21:49.632Z,66.81
2023-05-18T03:24:16.227Z,67.42
2023-05-18T03:26:44.446Z,66.94
2023-05-18T03:29:13.293Z,66.96
2023-05-18T03:31:40.239Z,66.99
2023-05-18T03:34:06.802Z,67.50
2023-05-18T03:36:33.306Z,67.35
2023-05-18T03:38:59.811Z,66.36
2023-05-18T03:41:26.476Z,66.65
2023-05-18T03:43:53.055Z,67.88
2023-05-18T03:46:19.639Z,66.74
2023-05-18T03:48:46.246Z,66.47
2023-05-18T03:51:12.822Z,66.20
2023-05-18T03:53:39.703Z,65.51
2023-05-18T03:56:06.381Z,65.07
2023-05-18T03:58:33.140Z,65.63
2023-05-18T04:01:01.033Z,65.01
2023-05-18T04:03:27.671Z,65.36
2023-05-18T04:05:54.184Z,65.02
2023-05-18T04:08:20.724Z,66.00
2023-05-18T04:10:47.429Z,65.36
2023-05-18T04:13:13.920Z,66.35
2023-05-18T04:15:40.422Z,65.65
2023-05-18T04:18:08.312Z,64.74
2023-05-18T04:20:34.988Z,64.40
2023-05-18T04:23:01.592Z,63.98
2023-05-18T04:25:28.671Z,63.63
2023-05-18T04:27:56.285Z,63.40
2023-05-18T04:30:23.434Z,64.22
2023-05-18T04:32:50.276Z,64.39
2023-05-18T04:35:16.879Z,63.02
2023-05-18T04:37:43.415Z,63.58
2023-05-18T04:40:13.755Z,63.03
2023-05-18T04:42:45.591Z,63.76
2023-05-18T04:45:15.892Z,62.98
2023-05-18T04:47:43.134Z,63.32
2023-05-18T04:50:10.023Z,63.38
2023-05-18T04:52:37.014Z,61.84
2023-05-18T04:55:03.912Z,61.43
2023-05-18T04:57:31.052Z,62.38
2023-05-18T04:59:58.343Z,61.40
2023-05-18T05:02:24.939Z,61.93
2023-05-18T05:04:51.584Z,61.36
2023-05-18T05:07:18.112Z,61.65
2023-05-18T05:09:44.615Z,60.79
2023-05-18T05:12:11.195Z,60.93
2023-05-18T05:14:37.687Z,60.11
2023-05-18T05:17:04.278Z,59.85
2023-05-18T05:19:30.882Z,58.99
2023-05-18T05:21:57.445Z,59.51
2023-05-18T05:24:23.937Z,61.07
2023-05-18T05:26:50.466Z,59.65
2023-05-18T05:29:16.956Z,59.13
2023-05-18T05:31:43.525Z,58.72
2023-05-18T05:34:11.988Z,59.91
2023-05-18T05:36:39.338Z,59.73
2023-05-18T05:39:05.856Z,59.77
2023-05-18T05:41:32.579Z,58.71
2023-05-18T05:43:59.248Z,59.55
2023-05-18T05:46:25.983Z,58.72
2023-05-18T05:48:52.572Z,56.59
2023-05-18T05:51:19.045Z,55.55
2023-05-18T05:53:47.562Z,56.01
2023-05-18T05:56:14.051Z,56.94
2023-05-18T05:58:42.332Z,55.71
2023-05-18T06:01:08.941Z,55.40
2023-05-18T06:03:36.340Z,54.38
2023-05-18T06:06:02.936Z,54.74
2023-05-18T06:08:29.491Z,54.20
2023-05-18T06:10:56.000Z,55.12
2023-05-18T06:13:22.518Z,54.66
2023-05-18T06:15:49.011Z,54.33
2023-05-18T06:18:15.608Z,54.63
2023-05-18T06:20:42.179Z,54.10
2023-05-18T06:23:08.655Z,54.36
2023-05-18T06:25:35.467Z,54.35
2023-05-18T06:28:02.123Z,55.17
2023-05-18T06:30:28.642Z,54.17
2023-05-18T06:32:55.191Z,54.20
2023-05-18T06:35:21.887Z,54.18
2023-05-18T06:37:48.378Z,56.02
2023-05-18T06:40:14.888Z,56.90
2023-05-18T06:42:42.492Z,55.07
2023-05-18T06:45:09.233Z,53.90
2023-05-18T06:47:35.748Z,53.69
2023-05-18T06:50:02.372Z,52.33
2023-05-18T06:52:28.874Z,53.98
2023-05-18T06:54:55.468Z,54.53
2023-05-18T06:57:21.931Z,52.99
2023-05-18T06:59:53.591Z,52.65
2023-05-18T07:02:21.297Z,52.48
2023-05-18T07:04:48.682Z,51.64
2023-05-18T07:07:16.785Z,51.29
2023-05-18T07:09:45.496Z,51.45
2023-05-18T07:12:12.867Z,51.88
2023-05-18T07:14:39.393Z,51.78
2023-05-18T07:17:07.087Z,52.92
2023-05-18T07:19:35.203Z,53.60
2023-05-18T07:22:01.706Z,52.10
2023-05-18T07:24:28.236Z,52.52
2023-05-18T07:26:54.711Z,51.65
2023-05-18T07:29:21.250Z,52.18
2023-05-18T07:31:47.945Z,48.76
2023-05-18T07:34:14.850Z,50.43
2023-05-18T07:36:41.617Z,49.21
2023-05-18T07:39:09.057Z,48.18
2023-05-18T07:41:36.215Z,48.31
2023-05-18T07:44:02.687Z,49.73
2023-05-18T07:46:29.410Z,52.15
2023-05-18T07:48:56.015Z,51.84
2023-05-18T07:51:22.625Z,52.56
2023-05-18T07:53:49.090Z,53.19
2023-05-18T07:56:15.587Z,53.13
2023-05-18T07:58:42.109Z,53.09
2023-05-18T08:01:08.602Z,51.91
2023-05-18T08:03:35.194Z,51.72
2023-05-18T08:06:01.770Z,48.20
2023-05-18T08:08:28.851Z,46.75
2023-05-18T08:10:55.428Z,47.03
2023-05-18T08:13:22.163Z,45.76
2023-05-18T08:15:56.061Z,44.54
2023-05-18T08:18:30.148Z,44.53
2023-05-18T08:20:56.640Z,44.78
2023-05-18T08:23:24.981Z,44.33
2023-05-18T08:25:51.532Z,42.90
2023-05-18T08:28:17.994Z,43.39
2023-05-18T08:30:44.497Z,43.47
2023-05-18T08:33:11.106Z,44.82
2023-05-18T08:35:37.776Z,46.73
2023-05-18T08:38:05.640Z,47.17
2023-05-18T08:40:45.900Z,48.39
2023-05-18T08:43:22.648Z,48.02
2023-05-18T08:45:53.158Z,49.31
2023-05-18T08:48:20.665Z,48.53
2023-05-18T08:50:47.253Z,45.47
2023-05-18T08:53:14.045Z,43.95
2023-05-18T08:55:40.539Z,43.36
2023-05-18T08:58:08.054Z,42.81
2023-05-18T09:00:35.215Z,46.72
2023-05-18T09:03:04.569Z,46.73
2023-05-18T09:05:31.781Z,45.41
2023-05-18T09:07:58.790Z,44.52
2023-05-18T09:10:26.158Z,45.13
2023-05-18T09:12:52.965Z,46.86
2023-05-18T09:15:19.483Z,44.22
2023-05-18T09:17:46.078Z,44.65
2023-05-18T09:20:12.990Z,42.07
2023-05-18T09:22:42.890Z,41.47
2023-05-18T09:25:10.715Z,42.83
2023-05-18T09:27:37.876Z,44.87
2023-05-18T09:30:05.239Z,44.39
2023-05-18T09:32:36.357Z,44.52
2023-05-18T09:35:06.996Z,43.69
2023-05-18T09:37:34.219Z,42.83
2023-05-18T09:40:05.442Z,40.93
2023-05-18T09:42:42.826Z,41.63
2023-05-18T09:45:20.502Z,39.66
2023-05-18T09:47:47.557Z,41.38
2023-05-18T09:50:14.252Z,41.13
2023-05-18T09:52:45.136Z,38.66
2023-05-18T09:55:12.341Z,39.15
2023-05-18T09:57:44.081Z,41.66
2023-05-18T10:00:11.883Z,41.75
2023-05-18T10:02:45.480Z,43.26
2023-05-18T10:05:20.285Z,41.34
2023-05-18T10:07:47.316Z,41.01
2023-05-18T10:10:21.128Z,39.31
2023-05-18T10:12:48.364Z,40.60
2023-05-18T10:15:16.852Z,41.17
2023-05-18T10:17:45.043Z,43.91
2023-05-18T10:20:16.194Z,42.88
2023-05-18T10:22:45.762Z,41.99
2023-05-18T10:25:19.242Z,41.11
2023-05-18T10:27:47.877Z,39.52
2023-05-18T10:30:15.278Z,39.91
2023-05-18T10:32:42.971Z,39.56
2023-05-18T10:35:11.344Z,37.38
2023-05-18T10:37:44.096Z,39.25
2023-05-18T10:40:15.882Z,38.32
2023-05-18T10:42:43.078Z,36.44
2023-05-18T10:45:10.526Z,37.26
2023-05-18T10:47:42.434Z,37.97
2023-05-18T10:50:10.312Z,37.21
2023-05-18T10:52:38.656Z,37.11
2023-05-18T10:55:09.339Z,36.94
2023-05-18T10:57:47.398Z,37.23
2023-05-18T11:00:14.473Z,37.81
2023-05-18T11:02:43.154Z,36.73
2023-05-18T11:05:13.936Z,39.02
2023-05-18T11:07:42.001Z,36.08
2023-05-18T11:10:10.165Z,37.81
2023-05-18T11:12:38.449Z,38.94
2023-05-18T11:15:05.995Z,37.87
2023-05-18T11:17:32.672Z,37.96
2023-05-18T11:20:08.864Z,36.20
2023-05-18T11:22:47.890Z,36.18
2023-05-18T11:25:34.486Z,35.54
2023-05-18T11:28:10.195Z,35.32
2023-05-18T11:30:36.764Z,35.43
2023-05-18T11:33:11.157Z,36.49
2023-05-18T11:35:56.544Z,36.76
2023-05-18T11:38:23.813Z,36.91
2023-05-18T11:40:50.935Z,38.27
2023-05-18T11:43:21.654Z,37.96
2023-05-18T11:45:58.905Z,38.51
2023-05-18T11:48:27.292Z,37.15
2023-05-18T11:50:57.460Z,37.92
2023-05-18T11:53:27.797Z,36.84
2023-05-18T11:55:54.852Z,35.21
2023-05-18T11:58:24.266Z,35.08
2023-05-18T12:00:51.277Z,34.81
2023-05-18T12:03:19.117Z,35.35
2023-05-18T12:05:49.324Z,35.29
2023-05-18T12:08:19.427Z,34.40
2023-05-18T12:10:47.347Z,35.22
2023-05-18T12:13:14.956Z,37.65
2023-05-18T12:15:42.411Z,37.06
2023-05-18T12:18:08.975Z,37.28
2023-05-18T12:20:39.244Z,37.06
2023-05-18T12:23:05.866Z,37.08
2023-05-18T12:25:32.633Z,35.10
2023-05-18T12:27:59.440Z,36.44
2023-05-18T12:30:35.786Z,34.36
2023-05-18T12:33:03.343Z,36.67
2023-05-18T12:35:31.192Z,36.56
2023-05-18T12:38:00.568Z,35.58
2023-05-18T12:40:27.920Z,34.92
2023-05-18T12:43:00.951Z,35.64
2023-05-18T12:45:29.654Z,35.63
2023-05-18T12:47:56.518Z,35.39
2023-05-18T12:50:25.225Z,34.05
2023-05-18T12:52:52.074Z,34.57
2023-05-18T12:55:22.967Z,34.44
2023-05-18T12:58:16.900Z,35.25
2023-05-18T13:00:45.397Z,36.30
2023-05-18T13:03:22.195Z,35.74
2023-05-18T13:06:12.138Z,33.52
2023-05-18T13:08:38.692Z,33.46
2023-05-18T13:11:13.655Z,33.74
2023-05-18T13:13:58.160Z,35.22
2023-05-18T13:16:24.898Z,33.31
2023-05-18T13:18:59.475Z,33.80
2023-05-18T13:21:26.427Z,33.06
2023-05-18T13:23:53.283Z,34.05
2023-05-18T13:26:23.762Z,33.26
2023-05-18T13:28:52.440Z,32.66
2023-05-18T13:31:19.732Z,33.31
2023-05-18T13:33:46.941Z,32.70
2023-05-18T13:36:13.695Z,32.73
2023-05-18T13:38:41.475Z,33.68
2023-05-18T13:41:09.992Z,33.04
2023-05-18T13:43:36.518Z,33.55
2023-05-18T13:46:03.119Z,34.31
2023-05-18T13:48:30.380Z,33.19
2023-05-18T13:50:56.998Z,32.66
2023-05-18T13:53:23.824Z,32.72
2023-05-18T13:55:50.500Z,33.74
2023-05-18T13:58:17.044Z,32.41
2023-05-18T14:00:43.928Z,33.14
2023-05-18T14:03:10.600Z,33.51
2023-05-18T14:05:37.298Z,33.88
2023-05-18T14:08:03.999Z,33.79
2023-05-18T14:10:30.920Z,32.85
2023-05-18T14:12:57.727Z,32.73
2023-05-18T14:15:24.250Z,32.97
2023-05-18T14:17:50.797Z,33.38
2023-05-18T14:20:17.424Z,33.17
2023-05-18T14:22:43.936Z,31.71
2023-05-18T14:25:10.615Z,31.47
2023-05-18T14:27:37.116Z,33.81
2023-05-18T14:30:03.971Z,34.85
2023-05-18T14:32:30.512Z,34.63
2023-05-18T14:34:58.209Z,34.13
2023-05-18T14:37:25.096Z,35.76
2023-05-18T14:39:51.604Z,36.03
2023-05-18T14:42:18.103Z,36.85
2023-05-18T14:44:44.625Z,36.76
2023-05-18T14:47:11.227Z,37.18
2023-05-18T14:49:38.117Z,37.95
2023-05-18T14:52:05.097Z,38.69
2023-05-18T14:54:31.577Z,38.18
2023-05-18T14:56:58.110Z,38.06
2023-05-18T14:59:24.594Z,38.28
2023-05-18T15:01:51.198Z,37.64
2023-05-18T15:04:17.852Z,38.28
2023-05-18T15:06:44.384Z,38.57
2023-05-18T15:09:11.312Z,37.61
2023-05-18T15:11:37.835Z,39.05
2023-05-18T15:14:04.390Z,39.71
2023-05-18T15:16:30.945Z,39.84
2023-05-18T15:18:57.762Z,38.41
2023-05-18T15:21:24.287Z,39.35
2023-05-18T15:23:51.022Z,39.38
2023-05-18T15:26:17.511Z,38.61
2023-05-18T15:28:45.062Z,40.04
2023-05-18T15:31:11.808Z,39.92
2023-05-18T15:33:42.078Z,38.45
2023-05-18T15:36:08.935Z,38.51
2023-05-18T15:38:35.848Z,39.84
2023-05-18T15:41:02.403Z,39.78
2023-05-18T15:43:30.469Z,39.09
2023-05-18T15:45:58.086Z,38.29
2023-05-18T15:48:24.662Z,38.89
2023-05-18T15:50:51.172Z,39.63
2023-05-18T15:53:17.705Z,39.03
2023-05-18T15:55:44.232Z,39.34
2023-05-18T15:58:10.748Z,38.73
2023-05-18T16:00:37.284Z,38.28
2023-05-18T16:03:04.002Z,38.36
2023-05-18T16:05:30.533Z,38.36
2023-05-18T16:07:57.102Z,37.73
2023-05-18T16:10:23.708Z,38.04
2023-05-18T16:12:50.209Z,38.19
2023-05-18T16:15:16.805Z,37.96
2023-05-18T16:17:43.323Z,36.72
2023-05-18T16:20:10.171Z,37.80
2023-05-18T16:22:36.674Z,38.77
2023-05-18T16:25:03.386Z,38.79
2023-05-18T16:27:29.867Z,39.72
2023-05-18T16:29:56.391Z,40.00
2023-05-18T16:32:24.635Z,40.48
2023-05-18T16:34:51.234Z,42.08
2023-05-18T16:37:17.744Z,41.88
2023-05-18T16:39:44.356Z,42.48
2023-05-18T16:42:12.353Z,42.65
2023-05-18T16:44:38.872Z,43.61
2023-05-18T16:47:05.784Z,43.24
2023-05-18T16:49:32.302Z,43.83
2023-05-18T16:51:58.774Z,44.77
2023-05-18T16:54:25.389Z,43.33
2023-05-18T16:56:52.018Z,43.05
2023-05-18T16:59:18.581Z,43.22
2023-05-18T17:01:45.125Z,43.54
2023-05-18T17:04:11.884Z,43.42
2023-05-18T17:06:39.242Z,44.78
2023-05-18T17:09:07.435Z,44.46
2023-05-18T17:11:33.906Z,44.28
2023-05-18T17:14:01.552Z,45.00
2023-05-18T17:16:28.654Z,45.32
2023-05-18T17:18:57.733Z,45.44
2023-05-18T17:21:28.405Z,45.83
2023-05-18T17:23:55.143Z,45.53
2023-05-18T17:26:22.314Z,46.55
2023-05-18T17:28:49.173Z,46.84
2023-05-18T17:31:15.939Z,46.93
2023-05-18T17:33:47.077Z,46.58
2023-05-18T17:36:15.796Z,46.73
2023-05-18T17:38:42.299Z,46.59
2023-05-18T17:41:08.816Z,46.45
2023-05-18T17:43:35.409Z,46.54
2023-05-18T17:46:02.182Z,47.06
2023-05-18T17:48:28.704Z,46.22
2023-05-18T17:50:55.540Z,46.72
2023-05-18T17:53:22.587Z,46.94
2023-05-18T17:55:49.136Z,46.64
2023-05-18T17:58:15.663Z,46.72
2023-05-18T18:00:42.177Z,47.29
2023-05-18T18:03:10.550Z,47.45
2023-05-18T18:05:37.207Z,47.41
2023-05-18T18:08:03.724Z,47.77
2023-05-18T18:10:31.776Z,47.46
2023-05-18T18:12:58.732Z,47.64
2023-05-18T18:15:28.974Z,46.76
2023-05-18T18:17:56.550Z,47.01
2023-05-18T18:20:23.427Z,46.77
2023-05-18T18:22:49.940Z,47.49
2023-05-18T18:25:16.667Z,46.40
2023-05-18T18:27:43.687Z,47.53
2023-05-18T18:30:10.819Z,47.07
2023-05-18T18:32:37.439Z,46.99
2023-05-18T18:35:04.434Z,46.93
2023-05-18T18:37:30.966Z,47.57
2023-05-18T18:39:57.512Z,47.60
2023-05-18T18:42:24.030Z,47.98
2023-05-18T18:44:53.031Z,48.36
2023-05-18T18:47:19.552Z,48.45
2023-05-18T18:49:46.071Z,48.91
2023-05-18T18:52:13.730Z,48.90
2023-05-18T18:54:40.597Z,48.98
2023-05-18T18:57:07.171Z,50.00
2023-05-18T18:59:35.484Z,50.95
2023-05-18T19:02:02.068Z,51.20
2023-05-18T19:04:28.651Z,51.11
2023-05-18T19:06:55.970Z,51.84
2023-05-18T19:09:22.955Z,52.33
2023-05-18T19:11:49.435Z,52.15
2023-05-18T19:14:16.446Z,51.47
2023-05-18T19:16:43.120Z,52.33
2023-05-18T19:19:09.832Z,52.28
2023-05-18T19:21:36.571Z,51.97
2023-05-18T19:24:07.322Z,52.13
2023-05-18T19:26:34.581Z,52.68
2023-05-18T19:29:01.174Z,53.42
2023-05-18T19:31:27.807Z,53.57
2023-05-18T19:33:54.445Z,53.99
2023-05-18T19:36:21.131Z,53.83
2023-05-18T19:38:47.932Z,54.26
2023-05-18T19:41:14.664Z,54.41
2023-05-18T19:43:41.188Z,54.21
2023-05-18T19:46:07.838Z,54.90
2023-05-18T19:48:34.385Z,55.41
2023-05-18T19:51:00.942Z,55.58
2023-05-18T19:53:27.417Z,55.30
2023-05-18T19:55:53.919Z,56.16
2023-05-18T19:58:20.392Z,55.87
2023-05-18T20:00:46.886Z,55.47
2023-05-18T20:03:14.399Z,56.38
2023-05-18T20:05:43.677Z,56.15
2023-05-18T20:08:10.219Z,56.40
2023-05-18T20:10:36.730Z,57.56
2023-05-18T20:13:03.196Z,57.38
2023-05-18T20:15:32.327Z,57.00
2023-05-18T20:17:58.874Z,57.25
2023-05-18T20:20:30.443Z,58.19
2023-05-18T20:22:57.389Z,57.77
2023-05-18T20:25:24.928Z,58.63
2023-05-18T20:27:52.587Z,58.15
2023-05-18T20:30:19.076Z,58.71
2023-05-18T20:32:45.624Z,58.51
2023-05-18T20:35:13.118Z,58.36
2023-05-18T20:37:41.390Z,59.00
2023-05-18T20:40:09.691Z,59.42
2023-05-18T20:42:40.492Z,58.61
2023-05-18T20:45:07.978Z,58.68
2023-05-18T20:47:35.146Z,58.98
2023-05-18T20:50:03.283Z,58.70
2023-05-18T20:52:29.824Z,59.38
2023-05-18T20:54:56.360Z,59.45
2023-05-18T20:57:22.962Z,59.93
2023-05-18T20:59:49.424Z,59.97
2023-05-18T21:02:17.000Z,59.43
2023-05-18T21:04:43.473Z,59.74
2023-05-18T21:07:10.080Z,59.81
2023-05-18T21:09:36.593Z,59.72
2023-05-18T21:12:03.154Z,59.78
2023-05-18T21:14:29.639Z,59.56
2023-05-18T21:16:56.255Z,60.19
2023-05-18T21:19:22.869Z,60.51
2023-05-18T21:21:49.481Z,60.24
2023-05-18T21:24:15.946Z,61.37
2023-05-18T21:26:42.549Z,61.51
2023-05-18T21:29:09.923Z,61.33
2023-05-18T21:31:36.556Z,60.95
2023-05-18T21:34:03.139Z,61.21
2023-05-18T21:36:33.921Z,62.02
2023-05-18T21:39:01.675Z,62.04
2023-05-18T21:41:28.236Z,61.35
2023-05-18T21:43:54.730Z,61.65
2023-05-18T21:46:21.312Z,62.63
2023-05-18T21:48:47.936Z,63.76
2023-05-18T21:51:14.443Z,63.21
2023-05-18T21:53:40.932Z,62.66
2023-05-18T21:56:07.515Z,63.13
2023-05-18T21:58:34.896Z,63.14
2023-05-18T22:01:01.379Z,64.08
2023-05-18T22:03:28.628Z,64.40
2023-05-18T22:05:55.197Z,65.04
2023-05-18T22:08:21.882Z,65.40
2023-05-18T22:10:48.483Z,65.55
2023-05-18T22:13:15.001Z,65.82
2023-05-18T22:15:41.576Z,66.96
2023-05-18T22:18:08.885Z,67.68
2023-05-18T22:20:35.457Z,67.85
2023-05-18T22:23:03.391Z,68.62
2023-05-18T22:25:30.033Z,68.88
2023-05-18T22:27:56.783Z,68.67
2023-05-18T22:30:28.345Z,68.62
2023-05-18T22:32:55.698Z,68.58
2023-05-18T22:35:23.056Z,68.12
2023-05-18T22:37:49.590Z,67.91
2023-05-18T22:40:16.104Z,68.08
2023-05-18T22:42:42.624Z,69.03
2023-05-18T22:45:10.001Z,68.54
2023-05-18T22:47:39.145Z,67.48
2023-05-18T22:50:09.212Z,67.09
2023-05-18T22:52:36.789Z,66.41
2023-05-18T22:55:13.475Z,67.83
2023-05-18T22:57:44.036Z,67.86
2023-05-18T23:00:12.578Z,68.05
2023-05-18T23:02:40.059Z,68.91
2023-05-18T23:05:07.789Z,68.79
2023-05-18T23:07:37.847Z,69.09
2023-05-18T23:10:05.814Z,69.33
2023-05-18T23:12:33.414Z,69.53
2023-05-18T23:15:02.903Z,70.58
2023-05-18T23:17:33.614Z,68.75
2023-05-18T23:20:08.098Z,67.92
2023-05-18T23:22:34.938Z,67.74
2023-05-18T23:25:02.217Z,67.26
2023-05-18T23:27:29.436Z,67.73
2023-05-18T23:29:57.019Z,67.13
2023-05-18T23:32:23.922Z,67.18
2023-05-18T23:34:52.997Z,68.29
2023-05-18T23:37:20.993Z,69.04
2023-05-18T23:39:50.681Z,68.74
2023-05-18T23:42:19.395Z,68.25
2023-05-18T23:44:47.114Z,68.29
2023-05-18T23:47:14.993Z,69.06
2023-05-18T23:49:42.392Z,69.58
2023-05-18T23:52:09.901Z,70.23
2023-05-18T23:54:37.538Z,71.62
2023-05-18T23:57:04.626Z,71.69
2023-05-18T23:59:32.107Z,72.12
